createdAt,value
2019-03-20T00:33:43.705Z,28.80
2019-03-20T00:36:24.069Z,34.80
2019-03-20T00:39:12.211Z,39.10
2019-03-20T00:50:49.006Z,28.90
2019-03-20T00:53:38.622Z,33.03
2019-03-20T00:56:03.488Z,26.10
2019-03-20T00:59:06.221Z,34.70
2019-03-20T01:01:49.045Z,39.53
2019-03-20T01:04:27.043Z,34.83
2019-03-20T01:38:11.769Z,48.97
2019-03-20T01:44:07.459Z,44.40
2019-03-20T01:46:58.578Z,43.10
2019-03-20T01:50:22.378Z,34.43
2019-03-20T03:08:08.857Z,53.87
2019-03-20T03:11:23.376Z,41.83
2019-03-20T03:14:09.081Z,39.73
2019-03-20T03:17:31.456Z,58.20
2019-03-20T03:42:45.081Z,40.70
2019-03-20T03:49:13.467Z,42.80
2019-03-20T03:51:57.222Z,43.93
2019-03-20T04:00:15.102Z,43.10
2019-03-20T04:02:52.803Z,47.67
2019-03-20T04:05:30.196Z,51.00
2019-03-20T04:08:45.850Z,48.70
2019-03-20T04:11:15.513Z,56.77
2019-03-20T04:14:21.722Z,60.20
2019-03-20T04:17:15.630Z,45.80
2019-03-20T04:19:53.830Z,55.87
2019-03-20T04:23:09.863Z,47.27
2019-03-20T04:26:08.407Z,55.67
2019-03-20T04:28:43.390Z,64.70
2019-03-20T05:31:56.448Z,32.50
2019-03-20T05:35:27.564Z,41.27
2019-03-20T05:38:22.906Z,39.93
2019-03-20T05:57:41.864Z,46.47
2019-03-20T06:07:41.494Z,39.53
2019-03-20T06:10:21.804Z,42.60
2019-03-20T06:16:23.322Z,34.87
2019-03-20T06:26:06.618Z,37.33
2019-03-20T06:34:30.999Z,28.67
2019-03-20T06:43:47.134Z,33.17
2019-03-20T07:01:28.235Z,21.23
2019-03-20T07:13:50.629Z,26.93
2019-03-20T07:17:23.322Z,38.30
2019-03-20T07:20:26.621Z,16.23
2019-03-20T07:32:39.991Z,24.63
2019-03-20T07:39:00.479Z,26.23
2019-03-20T07:52:21.787Z,27.23
2019-03-20T07:58:07.154Z,23.70
2019-03-20T08:10:01.573Z,24.30
2019-03-20T11:10:16.367Z,21.73
2019-03-20T13:03:47.542Z,9.27
2019-03-20T13:06:09.959Z,12.63
2019-03-20T13:08:16.857Z,13.93
2019-03-20T13:10:30.049Z,16.83
2019-03-20T13:12:49.559Z,12.23
2019-03-20T13:14:59.316Z,9.30
2019-03-20T13:17:43.893Z,18.93
2019-03-20T13:19:55.585Z,8.83
2019-03-20T13:22:25.456Z,14.23
2019-03-20T13:25:06.927Z,11.40
2019-03-20T13:27:23.598Z,9.13
2019-03-20T13:29:52.646Z,16.83
2019-03-20T13:32:08.885Z,9.40
2019-03-20T13:37:41.363Z,14.80
2019-03-20T13:40:23.438Z,13.37
2019-03-20T13:42:41.992Z,13.83
2019-03-20T13:44:59.437Z,10.40
2019-03-20T13:47:38.223Z,8.27
2019-03-20T13:49:54.748Z,11.23
2019-03-20T13:52:23.199Z,4.13
2019-03-20T13:54:31.364Z,13.27
2019-03-20T13:59:57.764Z,5.30
2019-03-20T14:05:39.857Z,8.73
2019-03-20T14:07:59.924Z,14.07
2019-03-20T14:10:49.694Z,6.80
2019-03-20T14:15:08.862Z,9.77
2019-03-20T16:38:13.776Z,16.27
2019-03-20T16:41:01.160Z,10.43
2019-03-20T16:44:11.098Z,17.50
2019-03-20T16:46:16.072Z,15.97
2019-03-20T16:50:20.346Z,16.70
2019-03-20T16:55:51.362Z,15.73
2019-03-20T17:12:59.899Z,14.10
2019-03-20T17:15:11.714Z,20.23
2019-03-20T17:17:45.989Z,20.60
2019-03-20T17:30:48.406Z,20.20
2019-03-20T17:33:12.056Z,14.33
2019-03-20T17:35:22.779Z,15.87
2019-03-20T17:37:36.274Z,16.17
2019-03-20T17:40:01.276Z,17.43
2019-03-20T17:42:42.160Z,14.20
2019-03-20T17:45:19.791Z,18.20
2019-03-20T17:48:30.208Z,23.07
2019-03-20T17:50:56.290Z,17.10
2019-03-20T17:53:21.273Z,21.07
2019-03-20T17:55:36.149Z,27.53
2019-03-20T17:57:48.931Z,16.63
2019-03-20T18:00:00.851Z,18.60
2019-03-20T18:05:02.651Z,16.83
2019-03-20T18:07:32.344Z,25.17
2019-03-20T18:09:42.834Z,20.60
2019-03-20T18:12:00.672Z,17.83
2019-03-20T18:14:17.924Z,21.47
2019-03-20T18:16:48.499Z,21.57
2019-03-20T18:19:25.542Z,24.17
2019-03-20T18:21:36.276Z,21.20
2019-03-20T18:23:59.765Z,17.87
2019-03-20T18:26:27.848Z,20.20
2019-03-20T18:28:38.508Z,35.70
2019-03-20T18:30:50.974Z,23.63
2019-03-20T18:33:13.153Z,24.57
2019-03-20T18:36:08.127Z,25.20
2019-03-20T18:38:58.525Z,21.87
2019-03-20T18:41:33.554Z,31.13
2019-03-20T18:44:04.682Z,27.53
2019-03-20T18:46:34.752Z,36.43
2019-03-20T18:49:56.043Z,21.73
2019-03-20T18:52:22.344Z,28.93
2019-03-20T18:55:12.158Z,39.93
2019-03-20T19:00:33.411Z,34.00
2019-03-20T19:02:56.500Z,32.87
2019-03-20T19:05:04.920Z,21.17
2019-03-20T19:07:15.732Z,32.77
2019-03-20T19:09:21.520Z,27.40
2019-03-20T19:11:39.714Z,22.93
2019-03-20T19:17:17.652Z,24.80
2019-03-20T19:22:33.594Z,31.83
2019-03-20T19:24:56.703Z,40.10
2019-03-20T19:27:09.897Z,33.13
2019-03-20T19:29:23.460Z,34.37
2019-03-20T19:32:24.437Z,37.70
2019-03-20T19:37:11.136Z,32.47
2019-03-20T19:41:48.421Z,28.93
2019-03-20T19:44:10.048Z,25.70
2019-03-20T19:46:30.718Z,28.10
2019-03-20T19:48:48.588Z,32.50
2019-03-20T19:51:03.998Z,36.27
2019-03-20T19:53:17.250Z,46.27
2019-03-20T19:55:32.103Z,32.80
2019-03-20T19:57:49.817Z,30.13
2019-03-20T20:00:24.408Z,29.13
2019-03-20T20:03:11.905Z,28.97
2019-03-20T20:05:33.372Z,30.33
2019-03-20T20:08:18.140Z,43.03
2019-03-20T20:10:31.541Z,29.27
2019-03-20T20:12:52.417Z,34.80
2019-03-20T20:15:37.561Z,41.00
2019-03-20T20:18:37.816Z,26.50
2019-03-20T20:21:01.415Z,33.60
2019-03-20T20:23:18.190Z,31.27
2019-03-20T20:25:34.387Z,42.40
2019-03-20T20:28:19.626Z,43.50
2019-03-20T20:30:54.172Z,27.70
2019-03-20T20:33:03.971Z,37.67
2019-03-20T20:35:21.021Z,33.43
2019-03-20T20:37:39.281Z,40.80
2019-03-20T20:39:45.400Z,39.70
2019-03-20T20:41:55.359Z,33.23
2019-03-20T20:46:59.168Z,32.23
2019-03-20T20:49:18.016Z,30.90
2019-03-20T20:54:39.850Z,32.30
2019-03-20T21:00:00.076Z,34.90
2019-03-20T21:02:51.729Z,33.70
2019-03-20T21:07:56.191Z,34.43
2019-03-20T21:10:17.896Z,33.80
2019-03-20T21:12:56.644Z,38.20
2019-03-20T21:15:06.670Z,38.47
2019-03-20T21:17:28.858Z,39.07
2019-03-20T21:19:34.268Z,40.63
2019-03-20T21:22:16.701Z,37.73
2019-03-20T21:24:25.832Z,35.07
2019-03-20T21:26:35.900Z,37.80
2019-03-20T21:29:36.263Z,37.70
2019-03-20T21:32:05.787Z,40.70
2019-03-20T21:34:59.867Z,49.93
2019-03-20T21:37:51.297Z,44.33
2019-03-20T21:39:55.969Z,33.30
2019-03-20T21:42:42.175Z,40.80
2019-03-20T21:45:33.537Z,35.20
2019-03-20T21:47:48.847Z,40.03
2019-03-20T21:50:18.368Z,41.83
2019-03-20T21:56:11.384Z,38.80
2019-03-20T21:58:48.347Z,40.63
2019-03-20T22:01:37.893Z,41.40
2019-03-20T22:04:15.283Z,30.10
2019-03-20T22:09:28.631Z,42.93
2019-03-20T22:12:40.643Z,38.13
2019-03-20T22:14:57.032Z,39.03
2019-03-20T22:17:51.393Z,32.07
2019-03-20T22:20:41.390Z,43.77
2019-03-20T22:26:56.848Z,39.67
2019-03-20T22:29:20.578Z,42.63
2019-03-20T22:31:25.017Z,41.93
2019-03-20T22:34:19.759Z,42.77
2019-03-20T22:36:42.699Z,45.33
2019-03-20T22:39:31.289Z,39.70
2019-03-20T22:42:02.976Z,50.97
2019-03-20T22:44:34.279Z,46.37
2019-03-20T22:48:04.440Z,54.00
2019-03-20T22:50:58.258Z,40.83
2019-03-20T22:54:00.456Z,39.87
2019-03-20T22:56:55.557Z,42.93
2019-03-20T22:59:34.748Z,36.33
2019-03-20T23:02:18.240Z,39.53
2019-03-20T23:04:56.523Z,38.27
2019-03-20T23:07:42.175Z,41.87
2019-03-20T23:09:54.586Z,41.03
2019-03-20T23:12:30.468Z,44.10
2019-03-20T23:15:12.350Z,44.77
2019-03-20T23:18:11.985Z,47.60
2019-03-20T23:20:45.793Z,48.80
2019-03-20T23:23:15.189Z,48.50
2019-03-20T23:25:44.746Z,43.03
2019-03-20T23:28:10.796Z,50.43
2019-03-20T23:30:31.133Z,48.93
2019-03-20T23:33:33.651Z,36.77
2019-03-20T23:38:59.421Z,48.30
2019-03-20T23:41:26.588Z,44.77
2019-03-20T23:44:22.144Z,52.40
2019-03-20T23:49:29.988Z,49.70
2019-03-20T23:52:01.478Z,45.47
2019-03-20T23:54:20.331Z,62.50
2019-03-20T23:59:31.949Z,54.40
